sensor_id;sensor_type;location;lat;lon;timestamp;temperature;humidity
4356;DHT22;64374;51.482;7.408;2023-04-09T00:00:02;12.90;99.90
4356;DHT22;64374;51.482;7.408;2023-04-09T00:02:39;12.90;99.90
4356;DHT22;64374;51.482;7.408;2023-04-09T00:05:08;12.70;99.90
4356;DHT22;64374;51.482;7.408;2023-04-09T00:07:36;12.70;99.90
4356;DHT22;64374;51.482;7.408;2023-04-09T00:10:06;12.60;99.90
4356;DHT22;64374;51.482;7.408;2023-04-09T00:12:35;12.50;99.90
4356;DHT22;64374;51.482;7.408;2023-04-09T00:15:04;12.30;99.90
4356;DHT22;64374;51.482;7.408;2023-04-09T00:17:33;12.30;99.90
4356;DHT22;64374;51.482;7.408;2023-04-09T00:20:03;12.20;99.90
4356;DHT22;64374;51.482;7.408;2023-04-09T00:22:32;12.10;99.90
4356;DHT22;64374;51.482;7.408;2023-04-09T00:25:05;12.10;99.90
4356;DHT22;64374;51.482;7.408;2023-04-09T00:27:33;12.00;99.90
4356;DHT22;64374;51.482;7.408;2023-04-09T00:30:03;11.90;99.90
4356;DHT22;64374;51.482;7.408;2023-04-09T00:32:31;11.80;99.90
4356;DHT22;64374;51.482;7.408;2023-04-09T00:34:59;11.90;99.90
4356;DHT22;64374;51.482;7.408;2023-04-09T00:37:29;11.90;99.90
4356;DHT22;64374;51.482;7.408;2023-04-09T00:39:58;11.90;99.90
4356;DHT22;64374;51.482;7.408;2023-04-09T00:42:30;11.90;99.90
4356;DHT22;64374;51.482;7.408;2023-04-09T00:44:59;11.80;99.90
4356;DHT22;64374;51.482;7.408;2023-04-09T00:47:28;11.80;99.90
4356;DHT22;64374;51.482;7.408;2023-04-09T00:50:00;11.80;99.90
4356;DHT22;64374;51.482;7.408;2023-04-09T00:52:31;11.80;99.90
4356;DHT22;64374;51.482;7.408;2023-04-09T00:55:03;12.00;99.90
4356;DHT22;64374;51.482;7.408;2023-04-09T00:57:32;11.90;99.90
4356;DHT22;64374;51.482;7.408;2023-04-09T01:00:00;11.90;99.90
4356;DHT22;64374;51.482;7.408;2023-04-09T01:02:29;11.90;99.90
4356;DHT22;64374;51.482;7.408;2023-04-09T01:04:58;11.90;99.90
4356;DHT22;64374;51.482;7.408;2023-04-09T01:07:40;11.90;99.90
4356;DHT22;64374;51.482;7.408;2023-04-09T01:10:18;11.90;99.90
4356;DHT22;64374;51.482;7.408;2023-04-09T01:12:57;11.80;99.90
4356;DHT22;64374;51.482;7.408;2023-04-09T01:15:30;11.70;99.90
4356;DHT22;64374;51.482;7.408;2023-04-09T01:18:08;11.70;99.90
4356;DHT22;64374;51.482;7.408;2023-04-09T01:20:39;11.60;99.90
4356;DHT22;64374;51.482;7.408;2023-04-09T01:23:17;11.70;99.90
4356;DHT22;64374;51.482;7.408;2023-04-09T01:25:59;11.50;99.90
4356;DHT22;64374;51.482;7.408;2023-04-09T01:28:42;11.50;99.90
4356;DHT22;64374;51.482;7.408;2023-04-09T01:31:16;11.50;99.90
4356;DHT22;64374;51.482;7.408;2023-04-09T01:33:45;11.40;99.90
4356;DHT22;64374;51.482;7.408;2023-04-09T01:36:15;11.40;99.90
4356;DHT22;64374;51.482;7.408;2023-04-09T01:38:45;11.40;99.90
4356;DHT22;64374;51.482;7.408;2023-04-09T01:41:18;11.40;99.90
4356;DHT22;64374;51.482;7.408;2023-04-09T01:43:50;11.40;99.90
4356;DHT22;64374;51.482;7.408;2023-04-09T01:46:20;11.40;99.90
4356;DHT22;64374;51.482;7.408;2023-04-09T01:48:50;11.20;99.90
4356;DHT22;64374;51.482;7.408;2023-04-09T01:51:19;11.10;99.90
4356;DHT22;64374;51.482;7.408;2023-04-09T01:53:48;11.10;99.90
4356;DHT22;64374;51.482;7.408;2023-04-09T01:56:16;11.10;99.90
4356;DHT22;64374;51.482;7.408;2023-04-09T01:58:44;11.10;99.90
4356;DHT22;64374;51.482;7.408;2023-04-09T02:01:21;11.10;99.90
4356;DHT22;64374;51.482;7.408;2023-04-09T02:03:54;11.10;99.90
4356;DHT22;64374;51.482;7.408;2023-04-09T02:06:27;11.10;99.90
4356;DHT22;64374;51.482;7.408;2023-04-09T02:09:00;11.20;99.90
4356;DHT22;64374;51.482;7.408;2023-04-09T02:11:32;11.10;99.90
4356;DHT22;64374;51.482;7.408;2023-04-09T02:14:02;11.10;99.90
4356;DHT22;64374;51.482;7.408;2023-04-09T02:16:33;11.10;99.90
4356;DHT22;64374;51.482;7.408;2023-04-09T02:19:01;11.10;99.90
4356;DHT22;64374;51.482;7.408;2023-04-09T02:21:29;11.10;99.90
4356;DHT22;64374;51.482;7.408;2023-04-09T02:23:58;11.10;99.90
4356;DHT22;64374;51.482;7.408;2023-04-09T02:26:26;11.20;99.90
4356;DHT22;64374;51.482;7.408;2023-04-09T02:28:54;11.30;99.90
4356;DHT22;64374;51.482;7.408;2023-04-09T02:31:23;11.30;99.90
4356;DHT22;64374;51.482;7.408;2023-04-09T02:33:54;11.40;99.90
4356;DHT22;64374;51.482;7.408;2023-04-09T02:36:22;11.40;99.90
4356;DHT22;64374;51.482;7.408;2023-04-09T02:38:51;11.20;99.90
4356;DHT22;64374;51.482;7.408;2023-04-09T02:41:19;11.20;99.90
4356;DHT22;64374;51.482;7.408;2023-04-09T02:43:53;11.20;99.90
4356;DHT22;64374;51.482;7.408;2023-04-09T02:46:24;11.10;99.90
4356;DHT22;64374;51.482;7.408;2023-04-09T02:48:56;11.00;99.90
4356;DHT22;64374;51.482;7.408;2023-04-09T02:51:24;11.00;99.90
4356;DHT22;64374;51.482;7.408;2023-04-09T02:53:53;11.10;99.90
4356;DHT22;64374;51.482;7.408;2023-04-09T02:56:21;11.10;99.90
4356;DHT22;64374;51.482;7.408;2023-04-09T02:58:50;11.10;99.90
4356;DHT22;64374;51.482;7.408;2023-04-09T03:01:21;11.20;99.90
4356;DHT22;64374;51.482;7.408;2023-04-09T03:03:49;11.20;99.90
4356;DHT22;64374;51.482;7.408;2023-04-09T03:06:20;11.20;99.90
4356;DHT22;64374;51.482;7.408;2023-04-09T03:08:49;11.10;99.90
4356;DHT22;64374;51.482;7.408;2023-04-09T03:11:18;11.10;99.90
4356;DHT22;64374;51.482;7.408;2023-04-09T03:13:46;11.00;99.90
4356;DHT22;64374;51.482;7.408;2023-04-09T03:16:14;11.00;99.90
4356;DHT22;64374;51.482;7.408;2023-04-09T03:18:42;11.10;99.90
4356;DHT22;64374;51.482;7.408;2023-04-09T03:21:11;11.10;99.90
4356;DHT22;64374;51.482;7.408;2023-04-09T03:23:47;11.20;99.90
4356;DHT22;64374;51.482;7.408;2023-04-09T03:26:16;11.20;99.90
4356;DHT22;64374;51.482;7.408;2023-04-09T03:28:47;11.10;99.90
4356;DHT22;64374;51.482;7.408;2023-04-09T03:31:16;11.10;99.90
4356;DHT22;64374;51.482;7.408;2023-04-09T03:33:45;10.90;99.90
4356;DHT22;64374;51.482;7.408;2023-04-09T03:36:14;10.80;99.90
4356;DHT22;64374;51.482;7.408;2023-04-09T03:39:13;10.80;99.90
4356;DHT22;64374;51.482;7.408;2023-04-09T03:41:43;11.10;99.90
4356;DHT22;64374;51.482;7.408;2023-04-09T03:44:15;11.10;99.90
4356;DHT22;64374;51.482;7.408;2023-04-09T03:47:02;11.10;99.90
4356;DHT22;64374;51.482;7.408;2023-04-09T03:49:33;11.00;99.90
4356;DHT22;64374;51.482;7.408;2023-04-09T03:52:13;11.00;99.90
4356;DHT22;64374;51.482;7.408;2023-04-09T03:54:46;11.00;99.90
4356;DHT22;64374;51.482;7.408;2023-04-09T03:57:19;11.10;99.90
4356;DHT22;64374;51.482;7.408;2023-04-09T03:59:52;11.00;99.90
4356;DHT22;64374;51.482;7.408;2023-04-09T04:02:22;10.90;99.90
4356;DHT22;64374;51.482;7.408;2023-04-09T04:05:01;10.80;99.90
4356;DHT22;64374;51.482;7.408;2023-04-09T04:07:37;10.70;99.90
4356;DHT22;64374;51.482;7.408;2023-04-09T04:10:11;10.60;99.90
4356;DHT22;64374;51.482;7.408;2023-04-09T04:12:44;10.60;99.90
4356;DHT22;64374;51.482;7.408;2023-04-09T04:15:22;10.70;99.90
4356;DHT22;64374;51.482;7.408;2023-04-09T04:17:54;10.80;99.90
4356;DHT22;64374;51.482;7.408;2023-04-09T04:20:34;10.70;99.90
4356;DHT22;64374;51.482;7.408;2023-04-09T04:23:07;10.60;99.90
4356;DHT22;64374;51.482;7.408;2023-04-09T04:25:43;10.70;99.90
4356;DHT22;64374;51.482;7.408;2023-04-09T04:28:16;10.50;99.90
4356;DHT22;64374;51.482;7.408;2023-04-09T04:30:45;10.30;99.90
4356;DHT22;64374;51.482;7.408;2023-04-09T04:33:13;10.40;99.90
4356;DHT22;64374;51.482;7.408;2023-04-09T04:35:47;10.30;99.90
4356;DHT22;64374;51.482;7.408;2023-04-09T04:38:31;10.30;99.90
4356;DHT22;64374;51.482;7.408;2023-04-09T04:41:05;10.30;99.90
4356;DHT22;64374;51.482;7.408;2023-04-09T04:43:38;10.20;99.90
4356;DHT22;64374;51.482;7.408;2023-04-09T04:46:11;10.20;99.90
4356;DHT22;64374;51.482;7.408;2023-04-09T04:48:40;10.30;99.90
4356;DHT22;64374;51.482;7.408;2023-04-09T04:51:09;10.30;99.90
4356;DHT22;64374;51.482;7.408;2023-04-09T04:53:44;10.30;99.90
4356;DHT22;64374;51.482;7.408;2023-04-09T04:56:15;10.50;99.90
4356;DHT22;64374;51.482;7.408;2023-04-09T04:58:57;10.70;99.90
4356;DHT22;64374;51.482;7.408;2023-04-09T05:01:27;10.60;99.90
4356;DHT22;64374;51.482;7.408;2023-04-09T05:03:56;10.50;99.90
4356;DHT22;64374;51.482;7.408;2023-04-09T05:06:35;10.50;99.90
4356;DHT22;64374;51.482;7.408;2023-04-09T05:09:08;10.60;99.90
4356;DHT22;64374;51.482;7.408;2023-04-09T05:11:45;10.70;99.90
4356;DHT22;64374;51.482;7.408;2023-04-09T05:14:18;10.60;99.90
4356;DHT22;64374;51.482;7.408;2023-04-09T05:16:48;10.50;99.90
4356;DHT22;64374;51.482;7.408;2023-04-09T05:19:25;10.60;99.90
4356;DHT22;64374;51.482;7.408;2023-04-09T05:21:58;10.80;99.90
4356;DHT22;64374;51.482;7.408;2023-04-09T05:24:28;10.70;99.90
4356;DHT22;64374;51.482;7.408;2023-04-09T05:26:58;10.40;99.90
4356;DHT22;64374;51.482;7.408;2023-04-09T05:29:27;10.30;99.90
4356;DHT22;64374;51.482;7.408;2023-04-09T05:31:55;10.20;99.90
4356;DHT22;64374;51.482;7.408;2023-04-09T05:34:32;10.30;99.90
4356;DHT22;64374;51.482;7.408;2023-04-09T05:37:00;10.50;99.90
4356;DHT22;64374;51.482;7.408;2023-04-09T05:39:31;10.50;99.90
4356;DHT22;64374;51.482;7.408;2023-04-09T05:42:01;10.40;99.90
4356;DHT22;64374;51.482;7.408;2023-04-09T05:44:50;10.40;99.90
4356;DHT22;64374;51.482;7.408;2023-04-09T05:47:20;10.50;99.90
4356;DHT22;64374;51.482;7.408;2023-04-09T05:50:02;10.40;99.90
4356;DHT22;64374;51.482;7.408;2023-04-09T05:52:50;10.40;99.90
4356;DHT22;64374;51.482;7.408;2023-04-09T05:55:20;10.40;99.90
4356;DHT22;64374;51.482;7.408;2023-04-09T05:58:02;10.50;99.90
4356;DHT22;64374;51.482;7.408;2023-04-09T06:00:31;10.70;99.90
4356;DHT22;64374;51.482;7.408;2023-04-09T06:02:59;10.60;99.90
4356;DHT22;64374;51.482;7.408;2023-04-09T06:05:30;10.50;99.90
4356;DHT22;64374;51.482;7.408;2023-04-09T06:08:00;10.60;99.90
4356;DHT22;64374;51.482;7.408;2023-04-09T06:10:31;10.70;99.90
4356;DHT22;64374;51.482;7.408;2023-04-09T06:13:03;10.60;99.90
4356;DHT22;64374;51.482;7.408;2023-04-09T06:15:32;10.70;99.90
4356;DHT22;64374;51.482;7.408;2023-04-09T06:18:00;10.70;99.90
4356;DHT22;64374;51.482;7.408;2023-04-09T06:20:29;10.60;99.90
4356;DHT22;64374;51.482;7.408;2023-04-09T06:22:58;10.60;99.90
4356;DHT22;64374;51.482;7.408;2023-04-09T06:25:27;10.60;99.90
4356;DHT22;64374;51.482;7.408;2023-04-09T06:27:58;10.60;99.90
4356;DHT22;64374;51.482;7.408;2023-04-09T06:30:28;10.80;99.90
4356;DHT22;64374;51.482;7.408;2023-04-09T06:32:58;11.00;99.90
4356;DHT22;64374;51.482;7.408;2023-04-09T06:35:27;10.90;99.90
4356;DHT22;64374;51.482;7.408;2023-04-09T06:37:56;10.90;99.90
4356;DHT22;64374;51.482;7.408;2023-04-09T06:40:24;10.90;99.90
4356;DHT22;64374;51.482;7.408;2023-04-09T06:42:54;11.00;99.90
4356;DHT22;64374;51.482;7.408;2023-04-09T06:45:30;10.90;99.90
4356;DHT22;64374;51.482;7.408;2023-04-09T06:48:00;10.90;99.90
4356;DHT22;64374;51.482;7.408;2023-04-09T06:50:31;11.00;99.90
4356;DHT22;64374;51.482;7.408;2023-04-09T06:52:59;11.00;99.90
4356;DHT22;64374;51.482;7.408;2023-04-09T06:55:28;11.10;99.90
4356;DHT22;64374;51.482;7.408;2023-04-09T06:57:56;11.10;99.90
4356;DHT22;64374;51.482;7.408;2023-04-09T07:00:25;11.10;99.90
4356;DHT22;64374;51.482;7.408;2023-04-09T07:02:54;11.10;99.90
4356;DHT22;64374;51.482;7.408;2023-04-09T07:05:24;11.10;99.90
4356;DHT22;64374;51.482;7.408;2023-04-09T07:07:53;11.20;99.90
4356;DHT22;64374;51.482;7.408;2023-04-09T07:10:21;11.30;99.90
4356;DHT22;64374;51.482;7.408;2023-04-09T07:12:52;11.40;99.90
4356;DHT22;64374;51.482;7.408;2023-04-09T07:15:21;11.50;99.90
4356;DHT22;64374;51.482;7.408;2023-04-09T07:17:49;11.50;99.90
4356;DHT22;64374;51.482;7.408;2023-04-09T07:20:19;11.70;99.90
4356;DHT22;64374;51.482;7.408;2023-04-09T07:22:47;11.90;99.90
4356;DHT22;64374;51.482;7.408;2023-04-09T07:25:16;11.90;99.90
4356;DHT22;64374;51.482;7.408;2023-04-09T07:27:45;12.00;99.90
4356;DHT22;64374;51.482;7.408;2023-04-09T07:30:13;12.20;99.90
4356;DHT22;64374;51.482;7.408;2023-04-09T07:32:42;12.30;99.90
4356;DHT22;64374;51.482;7.408;2023-04-09T07:35:10;12.40;99.90
4356;DHT22;64374;51.482;7.408;2023-04-09T07:37:40;12.30;99.90
4356;DHT22;64374;51.482;7.408;2023-04-09T07:40:08;12.40;99.90
4356;DHT22;64374;51.482;7.408;2023-04-09T07:42:37;12.30;99.90
4356;DHT22;64374;51.482;7.408;2023-04-09T07:45:06;12.30;99.90
4356;DHT22;64374;51.482;7.408;2023-04-09T07:47:35;12.40;99.90
4356;DHT22;64374;51.482;7.408;2023-04-09T07:50:05;12.60;99.90
4356;DHT22;64374;51.482;7.408;2023-04-09T07:52:37;12.60;99.90
4356;DHT22;64374;51.482;7.408;2023-04-09T07:55:07;12.70;99.90
4356;DHT22;64374;51.482;7.408;2023-04-09T07:57:36;12.70;99.90
4356;DHT22;64374;51.482;7.408;2023-04-09T08:00:05;12.60;99.90
4356;DHT22;64374;51.482;7.408;2023-04-09T08:02:42;12.60;99.90
4356;DHT22;64374;51.482;7.408;2023-04-09T08:05:11;12.50;99.90
4356;DHT22;64374;51.482;7.408;2023-04-09T08:07:39;12.70;99.90
4356;DHT22;64374;51.482;7.408;2023-04-09T08:10:09;13.00;99.90
4356;DHT22;64374;51.482;7.408;2023-04-09T08:12:41;13.00;99.90
4356;DHT22;64374;51.482;7.408;2023-04-09T08:15:11;12.90;99.90
4356;DHT22;64374;51.482;7.408;2023-04-09T08:17:39;12.90;99.90
4356;DHT22;64374;51.482;7.408;2023-04-09T08:20:09;13.10;99.90
4356;DHT22;64374;51.482;7.408;2023-04-09T08:22:37;13.20;99.90
4356;DHT22;64374;51.482;7.408;2023-04-09T08:25:08;13.20;99.90
4356;DHT22;64374;51.482;7.408;2023-04-09T08:27:37;13.30;99.90
4356;DHT22;64374;51.482;7.408;2023-04-09T08:30:07;13.30;99.90
4356;DHT22;64374;51.482;7.408;2023-04-09T08:32:36;13.20;99.90
4356;DHT22;64374;51.482;7.408;2023-04-09T08:35:06;13.40;99.90
4356;DHT22;64374;51.482;7.408;2023-04-09T08:37:35;13.30;99.90
4356;DHT22;64374;51.482;7.408;2023-04-09T08:40:05;13.40;99.90
4356;DHT22;64374;51.482;7.408;2023-04-09T08:42:35;13.50;99.90
4356;DHT22;64374;51.482;7.408;2023-04-09T08:45:09;13.60;99.90
4356;DHT22;64374;51.482;7.408;2023-04-09T08:47:39;13.70;99.90
4356;DHT22;64374;51.482;7.408;2023-04-09T08:50:10;13.50;99.90
4356;DHT22;64374;51.482;7.408;2023-04-09T08:52:38;13.50;99.90
4356;DHT22;64374;51.482;7.408;2023-04-09T08:55:07;13.60;99.90
4356;DHT22;64374;51.482;7.408;2023-04-09T08:57:40;13.80;99.90
4356;DHT22;64374;51.482;7.408;2023-04-09T09:00:09;14.00;99.90
4356;DHT22;64374;51.482;7.408;2023-04-09T09:02:38;14.00;99.90
4356;DHT22;64374;51.482;7.408;2023-04-09T09:05:35;14.10;99.90
4356;DHT22;64374;51.482;7.408;2023-04-09T09:08:06;14.20;99.90
4356;DHT22;64374;51.482;7.408;2023-04-09T09:10:40;14.00;99.90
4356;DHT22;64374;51.482;7.408;2023-04-09T09:13:21;14.00;99.90
4356;DHT22;64374;51.482;7.408;2023-04-09T09:15:52;14.20;99.90
4356;DHT22;64374;51.482;7.408;2023-04-09T09:18:37;14.30;99.90
4356;DHT22;64374;51.482;7.408;2023-04-09T09:21:11;14.30;99.90
4356;DHT22;64374;51.482;7.408;2023-04-09T09:23:39;14.40;99.90
4356;DHT22;64374;51.482;7.408;2023-04-09T09:26:16;14.30;99.90
4356;DHT22;64374;51.482;7.408;2023-04-09T09:28:47;14.30;99.90
4356;DHT22;64374;51.482;7.408;2023-04-09T09:31:17;14.50;99.90
4356;DHT22;64374;51.482;7.408;2023-04-09T09:33:47;14.40;99.90
4356;DHT22;64374;51.482;7.408;2023-04-09T09:36:30;14.60;99.90
4356;DHT22;64374;51.482;7.408;2023-04-09T09:39:00;14.60;99.90
4356;DHT22;64374;51.482;7.408;2023-04-09T09:41:31;14.60;99.90
4356;DHT22;64374;51.482;7.408;2023-04-09T09:44:01;14.20;99.90
4356;DHT22;64374;51.482;7.408;2023-04-09T09:46:33;14.20;99.90
4356;DHT22;64374;51.482;7.408;2023-04-09T09:49:07;14.30;99.90
4356;DHT22;64374;51.482;7.408;2023-04-09T09:51:36;13.90;99.90
4356;DHT22;64374;51.482;7.408;2023-04-09T09:54:07;14.00;99.90
4356;DHT22;64374;51.482;7.408;2023-04-09T09:56:40;13.70;99.90
4356;DHT22;64374;51.482;7.408;2023-04-09T09:59:14;13.80;99.90
4356;DHT22;64374;51.482;7.408;2023-04-09T10:01:45;14.00;99.90
4356;DHT22;64374;51.482;7.408;2023-04-09T10:04:15;14.10;99.90
4356;DHT22;64374;51.482;7.408;2023-04-09T10:06:47;14.20;99.90
4356;DHT22;64374;51.482;7.408;2023-04-09T10:09:20;14.20;99.90
4356;DHT22;64374;51.482;7.408;2023-04-09T10:11:49;14.40;99.90
4356;DHT22;64374;51.482;7.408;2023-04-09T10:14:22;14.50;99.90
4356;DHT22;64374;51.482;7.408;2023-04-09T10:16:52;14.60;99.90
4356;DHT22;64374;51.482;7.408;2023-04-09T10:19:21;14.70;99.90
4356;DHT22;64374;51.482;7.408;2023-04-09T10:21:56;14.80;99.90
4356;DHT22;64374;51.482;7.408;2023-04-09T10:24:26;14.90;99.90
4356;DHT22;64374;51.482;7.408;2023-04-09T10:27:08;14.90;99.90
4356;DHT22;64374;51.482;7.408;2023-04-09T10:29:44;15.10;99.90
4356;DHT22;64374;51.482;7.408;2023-04-09T10:32:17;15.10;99.90
4356;DHT22;64374;51.482;7.408;2023-04-09T10:34:48;15.00;99.90
4356;DHT22;64374;51.482;7.408;2023-04-09T10:37:22;15.20;99.90
4356;DHT22;64374;51.482;7.408;2023-04-09T10:39:53;15.30;99.90
4356;DHT22;64374;51.482;7.408;2023-04-09T10:42:23;15.30;99.90
4356;DHT22;64374;51.482;7.408;2023-04-09T10:45:10;15.30;99.90
4356;DHT22;64374;51.482;7.408;2023-04-09T10:47:42;14.90;99.90
4356;DHT22;64374;51.482;7.408;2023-04-09T10:50:15;14.30;99.90
4356;DHT22;64374;51.482;7.408;2023-04-09T10:52:44;14.50;99.90
4356;DHT22;64374;51.482;7.408;2023-04-09T10:55:29;14.80;99.90
4356;DHT22;64374;51.482;7.408;2023-04-09T10:57:57;14.70;99.90
4356;DHT22;64374;51.482;7.408;2023-04-09T11:00:27;15.00;99.90
4356;DHT22;64374;51.482;7.408;2023-04-09T11:03:19;15.10;99.90
4356;DHT22;64374;51.482;7.408;2023-04-09T11:05:51;14.50;99.90
4356;DHT22;64374;51.482;7.408;2023-04-09T11:08:21;14.80;99.90
4356;DHT22;64374;51.482;7.408;2023-04-09T11:10:50;15.10;99.90
4356;DHT22;64374;51.482;7.408;2023-04-09T11:13:23;15.20;99.90
4356;DHT22;64374;51.482;7.408;2023-04-09T11:15:53;15.40;99.90
4356;DHT22;64374;51.482;7.408;2023-04-09T11:18:24;15.50;99.90
4356;DHT22;64374;51.482;7.408;2023-04-09T11:20:56;15.50;99.90
4356;DHT22;64374;51.482;7.408;2023-04-09T11:23:26;15.60;99.90
4356;DHT22;64374;51.482;7.408;2023-04-09T11:25:55;15.70;99.90
4356;DHT22;64374;51.482;7.408;2023-04-09T11:28:24;15.90;99.90
4356;DHT22;64374;51.482;7.408;2023-04-09T11:30:55;15.90;99.90
4356;DHT22;64374;51.482;7.408;2023-04-09T11:33:30;15.90;99.90
4356;DHT22;64374;51.482;7.408;2023-04-09T11:35:59;16.20;99.90
4356;DHT22;64374;51.482;7.408;2023-04-09T11:38:30;16.00;99.90
4356;DHT22;64374;51.482;7.408;2023-04-09T11:41:00;16.40;99.90
4356;DHT22;64374;51.482;7.408;2023-04-09T11:43:29;16.80;99.90
4356;DHT22;64374;51.482;7.408;2023-04-09T11:45:59;16.90;99.90
4356;DHT22;64374;51.482;7.408;2023-04-09T11:48:48;17.20;99.90
4356;DHT22;64374;51.482;7.408;2023-04-09T11:51:18;17.00;99.90
4356;DHT22;64374;51.482;7.408;2023-04-09T11:53:50;17.20;99.90
4356;DHT22;64374;51.482;7.408;2023-04-09T11:56:18;16.80;99.90
4356;DHT22;64374;51.482;7.408;2023-04-09T11:58:47;16.70;99.90
4356;DHT22;64374;51.482;7.408;2023-04-09T12:01:17;16.10;99.90
4356;DHT22;64374;51.482;7.408;2023-04-09T12:03:51;16.20;99.90
4356;DHT22;64374;51.482;7.408;2023-04-09T12:06:21;16.20;99.90
4356;DHT22;64374;51.482;7.408;2023-04-09T12:08:52;15.80;99.90
4356;DHT22;64374;51.482;7.408;2023-04-09T12:11:27;15.90;99.90
4356;DHT22;64374;51.482;7.408;2023-04-09T12:13:59;16.30;99.90
4356;DHT22;64374;51.482;7.408;2023-04-09T12:16:31;16.30;99.90
4356;DHT22;64374;51.482;7.408;2023-04-09T12:19:02;16.50;99.90
4356;DHT22;64374;51.482;7.408;2023-04-09T12:21:44;16.60;99.90
4356;DHT22;64374;51.482;7.408;2023-04-09T12:24:13;16.90;99.90
4356;DHT22;64374;51.482;7.408;2023-04-09T12:26:44;17.00;99.90
4356;DHT22;64374;51.482;7.408;2023-04-09T12:29:16;17.00;99.90
4356;DHT22;64374;51.482;7.408;2023-04-09T12:31:46;17.10;99.90
4356;DHT22;64374;51.482;7.408;2023-04-09T12:34:15;17.20;99.90
4356;DHT22;64374;51.482;7.408;2023-04-09T12:36:43;17.30;99.90
4356;DHT22;64374;51.482;7.408;2023-04-09T12:39:17;17.40;99.90
4356;DHT22;64374;51.482;7.408;2023-04-09T12:41:47;17.50;99.90
4356;DHT22;64374;51.482;7.408;2023-04-09T12:44:17;17.60;99.90
4356;DHT22;64374;51.482;7.408;2023-04-09T12:46:48;17.60;99.90
4356;DHT22;64374;51.482;7.408;2023-04-09T12:49:18;17.70;99.90
4356;DHT22;64374;51.482;7.408;2023-04-09T12:51:47;17.70;99.90
4356;DHT22;64374;51.482;7.408;2023-04-09T12:54:16;17.60;99.90
4356;DHT22;64374;51.482;7.408;2023-04-09T12:56:44;17.80;99.90
4356;DHT22;64374;51.482;7.408;2023-04-09T12:59:13;17.80;99.90
4356;DHT22;64374;51.482;7.408;2023-04-09T13:01:41;17.60;99.90
4356;DHT22;64374;51.482;7.408;2023-04-09T13:04:15;17.50;99.90
4356;DHT22;64374;51.482;7.408;2023-04-09T13:06:44;17.40;99.90
4356;DHT22;64374;51.482;7.408;2023-04-09T13:09:13;17.50;99.90
4356;DHT22;64374;51.482;7.408;2023-04-09T13:11:43;17.80;99.90
4356;DHT22;64374;51.482;7.408;2023-04-09T13:14:12;17.60;99.90
4356;DHT22;64374;51.482;7.408;2023-04-09T13:16:40;17.60;99.90
4356;DHT22;64374;51.482;7.408;2023-04-09T13:19:09;17.30;99.90
4356;DHT22;64374;51.482;7.408;2023-04-09T13:21:42;17.30;99.90
4356;DHT22;64374;51.482;7.408;2023-04-09T13:24:10;17.20;99.90
4356;DHT22;64374;51.482;7.408;2023-04-09T13:26:38;16.70;99.90
4356;DHT22;64374;51.482;7.408;2023-04-09T13:29:07;16.60;99.90
4356;DHT22;64374;51.482;7.408;2023-04-09T13:31:37;16.80;99.90
4356;DHT22;64374;51.482;7.408;2023-04-09T13:34:05;16.90;99.90
4356;DHT22;64374;51.482;7.408;2023-04-09T13:36:33;17.20;99.90
4356;DHT22;64374;51.482;7.408;2023-04-09T13:39:03;17.20;99.90
4356;DHT22;64374;51.482;7.408;2023-04-09T13:41:32;17.40;99.90
4356;DHT22;64374;51.482;7.408;2023-04-09T13:44:02;17.20;99.90
4356;DHT22;64374;51.482;7.408;2023-04-09T13:46:31;16.30;99.90
4356;DHT22;64374;51.482;7.408;2023-04-09T13:49:00;16.60;99.90
4356;DHT22;64374;51.482;7.408;2023-04-09T13:51:30;17.00;99.90
4356;DHT22;64374;51.482;7.408;2023-04-09T13:53:58;17.10;99.90
4356;DHT22;64374;51.482;7.408;2023-04-09T13:56:31;17.20;99.90
4356;DHT22;64374;51.482;7.408;2023-04-09T13:59:00;17.40;99.90
4356;DHT22;64374;51.482;7.408;2023-04-09T14:01:30;17.40;99.90
4356;DHT22;64374;51.482;7.408;2023-04-09T14:03:59;17.70;99.90
4356;DHT22;64374;51.482;7.408;2023-04-09T14:06:27;17.50;99.90
4356;DHT22;64374;51.482;7.408;2023-04-09T14:08:57;17.50;99.90
4356;DHT22;64374;51.482;7.408;2023-04-09T14:11:27;17.30;99.90
4356;DHT22;64374;51.482;7.408;2023-04-09T14:13:58;17.40;99.90
4356;DHT22;64374;51.482;7.408;2023-04-09T14:16:28;17.40;99.90
4356;DHT22;64374;51.482;7.408;2023-04-09T14:18:57;17.30;99.90
4356;DHT22;64374;51.482;7.408;2023-04-09T14:21:28;17.40;99.90
4356;DHT22;64374;51.482;7.408;2023-04-09T14:23:56;17.40;99.90
4356;DHT22;64374;51.482;7.408;2023-04-09T14:26:25;17.30;99.90
4356;DHT22;64374;51.482;7.408;2023-04-09T14:28:54;17.30;99.90
4356;DHT22;64374;51.482;7.408;2023-04-09T14:31:24;17.40;99.90
4356;DHT22;64374;51.482;7.408;2023-04-09T14:33:52;17.50;99.90
4356;DHT22;64374;51.482;7.408;2023-04-09T14:36:20;17.60;99.90
4356;DHT22;64374;51.482;7.408;2023-04-09T14:38:54;17.60;99.90
4356;DHT22;64374;51.482;7.408;2023-04-09T14:41:25;17.70;99.90
4356;DHT22;64374;51.482;7.408;2023-04-09T14:43:54;17.50;99.90
4356;DHT22;64374;51.482;7.408;2023-04-09T14:46:22;17.50;99.90
4356;DHT22;64374;51.482;7.408;2023-04-09T14:48:52;17.60;99.90
4356;DHT22;64374;51.482;7.408;2023-04-09T14:51:21;17.80;99.90
4356;DHT22;64374;51.482;7.408;2023-04-09T14:53:49;17.80;99.90
4356;DHT22;64374;51.482;7.408;2023-04-09T14:56:17;18.00;99.90
4356;DHT22;64374;51.482;7.408;2023-04-09T14:58:46;18.20;99.90
4356;DHT22;64374;51.482;7.408;2023-04-09T15:01:14;18.10;99.90
4356;DHT22;64374;51.482;7.408;2023-04-09T15:03:43;18.20;99.90
4356;DHT22;64374;51.482;7.408;2023-04-09T15:06:13;18.50;99.90
4356;DHT22;64374;51.482;7.408;2023-04-09T15:08:42;18.40;98.80
4356;DHT22;64374;51.482;7.408;2023-04-09T15:11:14;18.40;99.30
4356;DHT22;64374;51.482;7.408;2023-04-09T15:13:43;18.40;98.90
4356;DHT22;64374;51.482;7.408;2023-04-09T15:16:19;18.20;98.80
4356;DHT22;64374;51.482;7.408;2023-04-09T15:18:48;18.20;98.50
4356;DHT22;64374;51.482;7.408;2023-04-09T15:21:20;18.30;98.50
4356;DHT22;64374;51.482;7.408;2023-04-09T15:23:52;18.40;98.20
4356;DHT22;64374;51.482;7.408;2023-04-09T15:26:22;18.50;97.70
4356;DHT22;64374;51.482;7.408;2023-04-09T15:28:50;18.30;97.50
4356;DHT22;64374;51.482;7.408;2023-04-09T15:31:19;18.20;97.80
4356;DHT22;64374;51.482;7.408;2023-04-09T15:33:48;18.00;97.70
4356;DHT22;64374;51.482;7.408;2023-04-09T15:36:17;17.70;97.60
4356;DHT22;64374;51.482;7.408;2023-04-09T15:38:47;17.50;98.00
4356;DHT22;64374;51.482;7.408;2023-04-09T15:41:15;17.50;98.80
4356;DHT22;64374;51.482;7.408;2023-04-09T15:43:43;17.50;98.00
4356;DHT22;64374;51.482;7.408;2023-04-09T15:46:12;17.60;98.30
4356;DHT22;64374;51.482;7.408;2023-04-09T15:48:43;17.60;98.60
4356;DHT22;64374;51.482;7.408;2023-04-09T15:51:11;17.70;97.90
4356;DHT22;64374;51.482;7.408;2023-04-09T15:53:40;17.60;97.90
4356;DHT22;64374;51.482;7.408;2023-04-09T15:56:11;17.70;97.70
4356;DHT22;64374;51.482;7.408;2023-04-09T15:58:43;17.80;97.50
4356;DHT22;64374;51.482;7.408;2023-04-09T16:01:11;17.80;96.60
4356;DHT22;64374;51.482;7.408;2023-04-09T16:03:40;17.60;96.50
4356;DHT22;64374;51.482;7.408;2023-04-09T16:06:12;17.60;96.80
4356;DHT22;64374;51.482;7.408;2023-04-09T16:09:04;17.60;96.90